sensor_id;sensor_type;location;lat;lon;timestamp;P1;durP1;ratioP1;P2;durP2;ratioP2
74219;SDS011;62580;54.416;11.120;2022-08-06T00:08:05;0.80;;;0.70;;
74219;SDS011;62580;54.416;11.120;2022-08-06T00:18:06;0.80;;;0.80;;
74219;SDS011;62580;54.416;11.120;2022-08-06T00:28:08;1.40;;;0.90;;
74219;SDS011;62580;54.416;11.120;2022-08-06T00:38:09;1.23;;;0.83;;
74219;SDS011;62580;54.416;11.120;2022-08-06T00:48:11;1.00;;;0.90;;
74219;SDS011;62580;54.416;11.120;2022-08-06T00:58:12;1.33;;;0.90;;
74219;SDS011;62580;54.416;11.120;2022-08-06T01:08:14;1.27;;;0.80;;
74219;SDS011;62580;54.416;11.120;2022-08-06T01:18:16;0.70;;;0.60;;
74219;SDS011;62580;54.416;11.120;2022-08-06T01:28:25;0.97;;;0.77;;
74219;SDS011;62580;54.416;11.120;2022-08-06T01:38:31;0.73;;;0.70;;
74219;SDS011;62580;54.416;11.120;2022-08-06T01:48:36;0.97;;;0.70;;
74219;SDS011;62580;54.416;11.120;2022-08-06T01:58:38;0.60;;;0.60;;
74219;SDS011;62580;54.416;11.120;2022-08-06T02:08:45;1.00;;;0.70;;
74219;SDS011;62580;54.416;11.120;2022-08-06T02:18:47;1.13;;;0.87;;
74219;SDS011;62580;54.416;11.120;2022-08-06T02:28:52;1.27;;;0.70;;
74219;SDS011;62580;54.416;11.120;2022-08-06T02:38:58;0.80;;;0.80;;
74219;SDS011;62580;54.416;11.120;2022-08-06T02:49:04;0.70;;;0.60;;
74219;SDS011;62580;54.416;11.120;2022-08-06T02:59:12;1.77;;;0.70;;
74219;SDS011;62580;54.416;11.120;2022-08-06T03:09:18;0.80;;;0.80;;
74219;SDS011;62580;54.416;11.120;2022-08-06T03:19:20;2.17;;;0.83;;
74219;SDS011;62580;54.416;11.120;2022-08-06T03:29:23;0.50;;;0.50;;
74219;SDS011;62580;54.416;11.120;2022-08-06T03:39:25;0.50;;;0.50;;
74219;SDS011;62580;54.416;11.120;2022-08-06T03:49:30;1.00;;;0.73;;
74219;SDS011;62580;54.416;11.120;2022-08-06T03:59:36;0.97;;;0.70;;
74219;SDS011;62580;54.416;11.120;2022-08-06T04:09:41;1.10;;;0.70;;
74219;SDS011;62580;54.416;11.120;2022-08-06T04:19:44;1.53;;;0.93;;
74219;SDS011;62580;54.416;11.120;2022-08-06T04:29:47;0.67;;;0.60;;
74219;SDS011;62580;54.416;11.120;2022-08-06T04:39:49;1.10;;;0.73;;
74219;SDS011;62580;54.416;11.120;2022-08-06T04:49:51;0.87;;;0.60;;
74219;SDS011;62580;54.416;11.120;2022-08-06T04:59:52;0.53;;;0.53;;
74219;SDS011;62580;54.416;11.120;2022-08-06T05:09:54;0.57;;;0.53;;
74219;SDS011;62580;54.416;11.120;2022-08-06T05:19:56;3.83;;;1.00;;
74219;SDS011;62580;54.416;11.120;2022-08-06T05:30:01;2.03;;;0.70;;
74219;SDS011;62580;54.416;11.120;2022-08-06T05:40:03;2.53;;;0.80;;
74219;SDS011;62580;54.416;11.120;2022-08-06T05:50:08;1.33;;;0.73;;
74219;SDS011;62580;54.416;11.120;2022-08-06T06:00:12;2.57;;;1.10;;
74219;SDS011;62580;54.416;11.120;2022-08-06T06:10:18;2.50;;;1.10;;
74219;SDS011;62580;54.416;11.120;2022-08-06T06:20:24;4.50;;;1.10;;
74219;SDS011;62580;54.416;11.120;2022-08-06T06:30:39;9.60;;;1.50;;
74219;SDS011;62580;54.416;11.120;2022-08-06T06:40:48;7.33;;;1.40;;
74219;SDS011;62580;54.416;11.120;2022-08-06T06:50:57;3.77;;;1.07;;
74219;SDS011;62580;54.416;11.120;2022-08-06T07:01:03;3.00;;;1.10;;
74219;SDS011;62580;54.416;11.120;2022-08-06T07:11:07;3.63;;;1.00;;
74219;SDS011;62580;54.416;11.120;2022-08-06T07:21:08;3.67;;;1.10;;
74219;SDS011;62580;54.416;11.120;2022-08-06T07:31:11;3.70;;;1.23;;
74219;SDS011;62580;54.416;11.120;2022-08-06T07:41:13;2.50;;;1.20;;
74219;SDS011;62580;54.416;11.120;2022-08-06T07:51:16;3.80;;;1.10;;
74219;SDS011;62580;54.416;11.120;2022-08-06T08:01:18;4.83;;;1.27;;
74219;SDS011;62580;54.416;11.120;2022-08-06T08:11:22;2.53;;;0.90;;
74219;SDS011;62580;54.416;11.120;2022-08-06T08:21:24;2.73;;;1.10;;
74219;SDS011;62580;54.416;11.120;2022-08-06T08:31:27;2.17;;;1.10;;
74219;SDS011;62580;54.416;11.120;2022-08-06T08:41:30;1.30;;;1.00;;
74219;SDS011;62580;54.416;11.120;2022-08-06T08:51:35;2.90;;;1.10;;
74219;SDS011;62580;54.416;11.120;2022-08-06T09:01:39;1.83;;;1.20;;
74219;SDS011;62580;54.416;11.120;2022-08-06T09:11:42;2.50;;;1.30;;
74219;SDS011;62580;54.416;11.120;2022-08-06T09:21:43;2.10;;;1.23;;
74219;SDS011;62580;54.416;11.120;2022-08-06T09:31:45;1.65;;;1.10;;
74219;SDS011;62580;54.416;11.120;2022-08-06T09:41:46;4.70;;;1.90;;
74219;SDS011;62580;54.416;11.120;2022-08-06T09:51:49;9.65;;;2.63;;
74219;SDS011;62580;54.416;11.120;2022-08-06T10:01:50;7.03;;;2.78;;
74219;SDS011;62580;54.416;11.120;2022-08-06T10:11:52;5.70;;;2.93;;
74219;SDS011;62580;54.416;11.120;2022-08-06T10:21:53;4.60;;;3.13;;
74219;SDS011;62580;54.416;11.120;2022-08-06T10:31:55;5.90;;;3.20;;
74219;SDS011;62580;54.416;11.120;2022-08-06T10:41:57;5.47;;;3.73;;
74219;SDS011;62580;54.416;11.120;2022-08-06T10:52:00;4.17;;;3.10;;
74219;SDS011;62580;54.416;11.120;2022-08-06T11:02:03;5.43;;;3.30;;
74219;SDS011;62580;54.416;11.120;2022-08-06T11:12:14;6.43;;;3.47;;
74219;SDS011;62580;54.416;11.120;2022-08-06T11:22:34;6.60;;;3.77;;
74219;SDS011;62580;54.416;11.120;2022-08-06T11:32:43;9.13;;;3.90;;
74219;SDS011;62580;54.416;11.120;2022-08-06T11:42:45;15.67;;;4.40;;
74219;SDS011;62580;54.416;11.120;2022-08-06T11:52:47;11.83;;;4.33;;
74219;SDS011;62580;54.416;11.120;2022-08-06T12:02:55;10.57;;;4.60;;
74219;SDS011;62580;54.416;11.120;2022-08-06T12:12:58;12.63;;;3.90;;
74219;SDS011;62580;54.416;11.120;2022-08-06T12:22:59;9.73;;;4.05;;
74219;SDS011;62580;54.416;11.120;2022-08-06T12:33:01;7.38;;;3.72;;
74219;SDS011;62580;54.416;11.120;2022-08-06T12:43:10;5.05;;;3.15;;
74219;SDS011;62580;54.416;11.120;2022-08-06T12:53:12;4.70;;;3.47;;
74219;SDS011;62580;54.416;11.120;2022-08-06T13:03:14;5.13;;;3.40;;
74219;SDS011;62580;54.416;11.120;2022-08-06T13:13:18;5.25;;;3.40;;
74219;SDS011;62580;54.416;11.120;2022-08-06T13:23:27;5.18;;;3.13;;
74219;SDS011;62580;54.416;11.120;2022-08-06T13:33:30;5.82;;;2.97;;
74219;SDS011;62580;54.416;11.120;2022-08-06T13:43:34;4.82;;;3.03;;
74219;SDS011;62580;54.416;11.120;2022-08-06T13:53:37;3.30;;;3.00;;
74219;SDS011;62580;54.416;11.120;2022-08-06T14:03:38;3.80;;;2.90;;
74219;SDS011;62580;54.416;11.120;2022-08-06T14:13:41;3.38;;;2.80;;
74219;SDS011;62580;54.416;11.120;2022-08-06T14:23:41;3.25;;;2.95;;
74219;SDS011;62580;54.416;11.120;2022-08-06T14:33:43;2.90;;;2.70;;
74219;SDS011;62580;54.416;11.120;2022-08-06T14:43:44;3.35;;;2.70;;
74219;SDS011;62580;54.416;11.120;2022-08-06T14:53:46;3.45;;;3.00;;
74219;SDS011;62580;54.416;11.120;2022-08-06T15:03:47;3.10;;;2.80;;
74219;SDS011;62580;54.416;11.120;2022-08-06T15:13:49;2.97;;;2.67;;
74219;SDS011;62580;54.416;11.120;2022-08-06T15:23:49;3.20;;;2.65;;
74219;SDS011;62580;54.416;11.120;2022-08-06T15:33:51;3.88;;;2.75;;
74219;SDS011;62580;54.416;11.120;2022-08-06T15:43:52;3.00;;;2.42;;
74219;SDS011;62580;54.416;11.120;2022-08-06T15:53:54;3.13;;;2.60;;
74219;SDS011;62580;54.416;11.120;2022-08-06T16:03:55;3.25;;;2.58;;
74219;SDS011;62580;54.416;11.120;2022-08-06T16:13:57;2.95;;;2.53;;
74219;SDS011;62580;54.416;11.120;2022-08-06T16:23:57;2.90;;;2.58;;
74219;SDS011;62580;54.416;11.120;2022-08-06T16:33:59;3.55;;;2.58;;
74219;SDS011;62580;54.416;11.120;2022-08-06T16:44:00;2.95;;;2.50;;
74219;SDS011;62580;54.416;11.120;2022-08-06T16:54:02;3.08;;;2.25;;
74219;SDS011;62580;54.416;11.120;2022-08-06T17:04:03;2.72;;;2.47;;
74219;SDS011;62580;54.416;11.120;2022-08-06T17:14:05;3.92;;;2.50;;
74219;SDS011;62580;54.416;11.120;2022-08-06T17:24:06;2.60;;;2.28;;
74219;SDS011;62580;54.416;11.120;2022-08-06T17:34:08;3.37;;;2.30;;
74219;SDS011;62580;54.416;11.120;2022-08-06T17:44:09;2.50;;;2.23;;
74219;SDS011;62580;54.416;11.120;2022-08-06T17:54:11;2.43;;;2.23;;
74219;SDS011;62580;54.416;11.120;2022-08-06T18:04:12;2.23;;;2.03;;
74219;SDS011;62580;54.416;11.120;2022-08-06T18:14:14;2.40;;;2.20;;
74219;SDS011;62580;54.416;11.120;2022-08-06T18:24:15;2.30;;;2.10;;
74219;SDS011;62580;54.416;11.120;2022-08-06T18:34:17;2.40;;;2.03;;
74219;SDS011;62580;54.416;11.120;2022-08-06T18:44:17;2.77;;;2.00;;
74219;SDS011;62580;54.416;11.120;2022-08-06T19:04:42;3.07;;;2.20;;
74219;SDS011;62580;54.416;11.120;2022-08-06T19:14:46;2.00;;;1.80;;
74219;SDS011;62580;54.416;11.120;2022-08-06T19:24:48;2.57;;;1.87;;
74219;SDS011;62580;54.416;11.120;2022-08-06T19:34:50;4.20;;;1.60;;
74219;SDS011;62580;54.416;11.120;2022-08-06T19:44:51;7.80;;;2.10;;
74219;SDS011;62580;54.416;11.120;2022-08-06T19:54:53;11.07;;;2.30;;
74219;SDS011;62580;54.416;11.120;2022-08-06T20:55:41;3.70;;;1.90;;
74219;SDS011;62580;54.416;11.120;2022-08-06T21:06:23;6.00;;;2.00;;
74219;SDS011;62580;54.416;11.120;2022-08-06T21:16:53;3.57;;;1.60;;
74219;SDS011;62580;54.416;11.120;2022-08-06T21:59:40;3.60;;;1.73;;
74219;SDS011;62580;54.416;11.120;2022-08-06T22:09:42;4.10;;;1.80;;
74219;SDS011;62580;54.416;11.120;2022-08-06T22:30:56;2.63;;;1.70;;
74219;SDS011;62580;54.416;11.120;2022-08-06T22:40:57;3.60;;;1.67;;
74219;SDS011;62580;54.416;11.120;2022-08-06T22:50:59;2.20;;;1.70;;
74219;SDS011;62580;54.416;11.120;2022-08-06T23:00:59;2.87;;;1.67;;
74219;SDS011;62580;54.416;11.120;2022-08-06T23:11:01;2.57;;;1.80;;
74219;SDS011;62580;54.416;11.120;2022-08-06T23:21:02;1.90;;;1.50;;
74219;SDS011;62580;54.416;11.120;2022-08-06T23:31:04;3.60;;;1.67;;
74219;SDS011;62580;54.416;11.120;2022-08-06T23:41:05;3.00;;;2.00;;
74219;SDS011;62580;54.416;11.120;2022-08-06T23:51:07;2.83;;;1.73;;
